sensor_id;sensor_type;location;lat;lon;timestamp;pressure;altitude;pressure_sealevel;temperature;humidity
55068;BME280;40965;52.368;9.712;2023-03-21T00:02:23;100953.97;;;7.43;100.00
55068;BME280;40965;52.368;9.712;2023-03-21T00:04:50;100953.13;;;7.44;100.00
55068;BME280;40965;52.368;9.712;2023-03-21T00:07:16;100949.66;;;7.45;100.00
55068;BME280;40965;52.368;9.712;2023-03-21T00:09:43;100942.69;;;7.42;100.00
55068;BME280;40965;52.368;9.712;2023-03-21T00:12:10;100943.53;;;7.41;100.00
55068;BME280;40965;52.368;9.712;2023-03-21T00:14:36;100947.03;;;7.42;100.00
55068;BME280;40965;52.368;9.712;2023-03-21T00:17:03;100938.34;;;7.41;100.00
55068;BME280;40965;52.368;9.712;2023-03-21T00:19:30;100938.34;;;7.41;100.00
55068;BME280;40965;52.368;9.712;2023-03-21T00:21:56;100944.44;;;7.42;100.00
55068;BME280;40965;52.368;9.712;2023-03-21T00:24:23;100933.13;;;7.43;100.00
55068;BME280;40965;52.368;9.712;2023-03-21T00:26:50;100929.69;;;7.45;100.00
55068;BME280;40965;52.368;9.712;2023-03-21T00:29:16;100933.19;;;7.48;100.00
55068;BME280;40965;52.368;9.712;2023-03-21T00:31:43;100927.97;;;7.46;100.00
55068;BME280;40965;52.368;9.712;2023-03-21T00:34:10;100927.97;;;7.44;100.00
55068;BME280;40965;52.368;9.712;2023-03-21T00:36:37;100925.34;;;7.44;100.00
55068;BME280;40965;52.368;9.712;2023-03-21T00:39:03;100923.63;;;7.45;100.00
55068;BME280;40965;52.368;9.712;2023-03-21T00:41:33;100924.50;;;7.47;100.00
55068;BME280;40965;52.368;9.712;2023-03-21T00:44:00;100923.63;;;7.48;100.00
55068;BME280;40965;52.368;9.712;2023-03-21T00:46:28;100923.63;;;7.48;100.00
55068;BME280;40965;52.368;9.712;2023-03-21T00:48:54;100916.66;;;7.45;100.00
55068;BME280;40965;52.368;9.712;2023-03-21T00:51:22;100913.22;;;7.48;100.00
55068;BME280;40965;52.368;9.712;2023-03-21T00:53:55;100913.19;;;7.47;100.00
55068;BME280;40965;52.368;9.712;2023-03-21T00:56:23;100914.97;;;7.51;100.00
55068;BME280;40965;52.368;9.712;2023-03-21T00:58:49;100911.50;;;7.53;100.00
55068;BME280;40965;52.368;9.712;2023-03-21T01:01:16;100901.97;;;7.52;100.00
55068;BME280;40965;52.368;9.712;2023-03-21T01:03:42;100907.19;;;7.54;100.00
55068;BME280;40965;52.368;9.712;2023-03-21T01:06:19;100908.09;;;7.57;100.00
55068;BME280;40965;52.368;9.712;2023-03-21T01:08:46;100902.91;;;7.60;100.00
55068;BME280;40965;52.368;9.712;2023-03-21T01:11:17;100903.75;;;7.62;100.00
55068;BME280;40965;52.368;9.712;2023-03-21T01:13:45;100905.50;;;7.64;100.00
55068;BME280;40965;52.368;9.712;2023-03-21T01:16:12;100896.00;;;7.67;100.00
55068;BME280;40965;52.368;9.712;2023-03-21T01:18:40;100907.28;;;7.68;100.00
55068;BME280;40965;52.368;9.712;2023-03-21T01:21:09;100893.38;;;7.66;100.00
55068;BME280;40965;52.368;9.712;2023-03-21T01:23:39;100902.91;;;7.64;100.00
55068;BME280;40965;52.368;9.712;2023-03-21T01:26:08;100895.09;;;7.62;100.00
55068;BME280;40965;52.368;9.712;2023-03-21T01:28:36;100898.53;;;7.59;100.00
55068;BME280;40965;52.368;9.712;2023-03-21T01:31:04;100897.69;;;7.57;100.00
55068;BME280;40965;52.368;9.712;2023-03-21T01:33:32;100896.78;;;7.58;100.00
55068;BME280;40965;52.368;9.712;2023-03-21T01:36:00;100891.59;;;7.60;100.00
55068;BME280;40965;52.368;9.712;2023-03-21T01:38:27;100897.69;;;7.60;100.00
55068;BME280;40965;52.368;9.712;2023-03-21T01:40:54;100889.88;;;7.60;100.00
55068;BME280;40965;52.368;9.712;2023-03-21T01:43:24;100895.09;;;7.62;100.00
55068;BME280;40965;52.368;9.712;2023-03-21T01:46:21;100882.97;;;7.66;100.00
55068;BME280;40965;52.368;9.712;2023-03-21T01:49:01;100881.22;;;7.66;100.00
55068;BME280;40965;52.368;9.712;2023-03-21T01:51:36;100881.22;;;7.68;100.00
55068;BME280;40965;52.368;9.712;2023-03-21T01:54:08;100878.66;;;7.69;100.00
55068;BME280;40965;52.368;9.712;2023-03-21T01:56:42;100877.75;;;7.66;100.00
55068;BME280;40965;52.368;9.712;2023-03-21T01:59:18;100879.47;;;7.65;100.00
55068;BME280;40965;52.368;9.712;2023-03-21T02:01:48;100876.84;;;7.65;100.00
55068;BME280;40965;52.368;9.712;2023-03-21T02:04:16;100875.13;;;7.66;100.00
55068;BME280;40965;52.368;9.712;2023-03-21T02:06:52;100875.16;;;7.69;100.00
55068;BME280;40965;52.368;9.712;2023-03-21T02:09:24;100872.53;;;7.69;100.00
55068;BME280;40965;52.368;9.712;2023-03-21T02:11:54;100871.69;;;7.68;100.00
55068;BME280;40965;52.368;9.712;2023-03-21T02:14:20;100863.88;;;7.68;100.00
55068;BME280;40965;52.368;9.712;2023-03-21T02:16:52;100864.72;;;7.70;100.00
55068;BME280;40965;52.368;9.712;2023-03-21T02:20:00;100861.28;;;7.73;100.00
55068;BME280;40965;52.368;9.712;2023-03-21T02:23:09;100858.69;;;7.74;100.00
55068;BME280;40965;52.368;9.712;2023-03-21T02:29:16;100850.03;;;7.77;100.00
55068;BME280;40965;52.368;9.712;2023-03-21T02:37:56;100845.69;;;7.82;100.00
55068;BME280;40965;52.368;9.712;2023-03-21T02:43:31;100840.47;;;7.82;100.00
55068;BME280;40965;52.368;9.712;2023-03-21T02:46:13;100844.81;;;7.83;100.00
55068;BME280;40965;52.368;9.712;2023-03-21T02:48:59;100841.34;;;7.80;100.00
55068;BME280;40965;52.368;9.712;2023-03-21T02:51:30;100838.75;;;7.80;100.00
55068;BME280;40965;52.368;9.712;2023-03-21T02:54:12;100837.88;;;7.81;100.00
55068;BME280;40965;52.368;9.712;2023-03-21T02:56:41;100840.47;;;7.81;100.00
55068;BME280;40965;52.368;9.712;2023-03-21T02:59:11;100835.25;;;7.82;100.00
55068;BME280;40965;52.368;9.712;2023-03-21T03:01:39;100837.88;;;7.81;100.00
55068;BME280;40965;52.368;9.712;2023-03-21T03:04:17;100831.78;;;7.82;100.00
55068;BME280;40965;52.368;9.712;2023-03-21T03:09:59;100834.41;;;7.83;100.00
55068;BME280;40965;52.368;9.712;2023-03-21T03:13:05;100832.69;;;7.84;100.00
55068;BME280;40965;52.368;9.712;2023-03-21T03:16:00;100830.94;;;7.84;100.00
55068;BME280;40965;52.368;9.712;2023-03-21T03:18:58;100825.72;;;7.86;100.00
55068;BME280;40965;52.368;9.712;2023-03-21T03:21:31;100823.97;;;7.83;100.00
55068;BME280;40965;52.368;9.712;2023-03-21T03:24:09;100823.97;;;7.83;100.00
55068;BME280;40965;52.368;9.712;2023-03-21T03:26:40;100821.38;;;7.85;100.00
55068;BME280;40965;52.368;9.712;2023-03-21T03:29:15;100819.66;;;7.85;100.00
55068;BME280;40965;52.368;9.712;2023-03-21T03:31:56;100821.41;;;7.88;100.00
55068;BME280;40965;52.368;9.712;2023-03-21T03:34:31;100813.59;;;7.86;100.00
55068;BME280;40965;52.368;9.712;2023-03-21T03:37:05;100817.91;;;7.86;100.00
55068;BME280;40965;52.368;9.712;2023-03-21T03:39:39;100820.50;;;7.86;100.00
55068;BME280;40965;52.368;9.712;2023-03-21T03:42:23;100817.91;;;7.87;100.00
55068;BME280;40965;52.368;9.712;2023-03-21T03:44:53;100813.59;;;7.91;100.00
55068;BME280;40965;52.368;9.712;2023-03-21T03:47:27;100819.69;;;7.91;100.00
55068;BME280;40965;52.368;9.712;2023-03-21T03:51:03;100815.34;;;7.92;100.00
55068;BME280;40965;52.368;9.712;2023-03-21T03:53:40;100813.59;;;7.88;100.00
55068;BME280;40965;52.368;9.712;2023-03-21T03:56:09;100809.22;;;7.85;100.00
55068;BME280;40965;52.368;9.712;2023-03-21T03:58:37;100811.84;;;7.84;100.00
55068;BME280;40965;52.368;9.712;2023-03-21T04:01:05;100817.00;;;7.82;100.00
55068;BME280;40965;52.368;9.712;2023-03-21T04:03:34;100814.41;;;7.82;100.00
55068;BME280;40965;52.368;9.712;2023-03-21T04:06:03;100812.69;;;7.81;100.00
55068;BME280;40965;52.368;9.712;2023-03-21T04:08:30;100814.41;;;7.82;100.00
55068;BME280;40965;52.368;9.712;2023-03-21T04:10:57;100811.81;;;7.81;100.00
55068;BME280;40965;52.368;9.712;2023-03-21T04:13:24;100803.13;;;7.82;100.00
55068;BME280;40965;52.368;9.712;2023-03-21T04:15:50;100809.19;;;7.82;100.00
55068;BME280;40965;52.368;9.712;2023-03-21T04:18:17;100806.59;;;7.82;100.00
55068;BME280;40965;52.368;9.712;2023-03-21T04:20:43;100807.47;;;7.84;100.00
55068;BME280;40965;52.368;9.712;2023-03-21T04:23:12;100818.81;;;7.86;100.00
55068;BME280;40965;52.368;9.712;2023-03-21T04:25:38;100810.94;;;7.83;100.00
55068;BME280;40965;52.368;9.712;2023-03-21T04:28:05;100807.47;;;7.84;100.00
55068;BME280;40965;52.368;9.712;2023-03-21T04:30:31;100801.41;;;7.87;100.00
55068;BME280;40965;52.368;9.712;2023-03-21T04:32:58;100810.09;;;7.86;100.00
55068;BME280;40965;52.368;9.712;2023-03-21T04:35:26;100803.16;;;7.88;100.00
55068;BME280;40965;52.368;9.712;2023-03-21T04:37:54;100802.28;;;7.86;100.00
55068;BME280;40965;52.368;9.712;2023-03-21T04:40:21;100803.13;;;7.85;100.00
55068;BME280;40965;52.368;9.712;2023-03-21T04:42:48;100800.53;;;7.85;100.00
55068;BME280;40965;52.368;9.712;2023-03-21T04:45:16;100802.28;;;7.86;100.00
55068;BME280;40965;52.368;9.712;2023-03-21T04:47:43;100796.19;;;7.85;100.00
55068;BME280;40965;52.368;9.712;2023-03-21T04:50:10;100802.28;;;7.83;100.00
55068;BME280;40965;52.368;9.712;2023-03-21T04:52:38;100796.16;;;7.81;100.00
55068;BME280;40965;52.368;9.712;2023-03-21T04:55:05;100795.28;;;7.75;100.00
55068;BME280;40965;52.368;9.712;2023-03-21T04:57:36;100796.13;;;7.73;100.00
55068;BME280;40965;52.368;9.712;2023-03-21T05:00:07;100797.88;;;7.74;100.00
55068;BME280;40965;52.368;9.712;2023-03-21T05:02:36;100797.88;;;7.75;100.00
55068;BME280;40965;52.368;9.712;2023-03-21T05:05:03;100803.13;;;7.77;100.00
55068;BME280;40965;52.368;9.712;2023-03-21T05:07:31;100798.78;;;7.81;100.00
55068;BME280;40965;52.368;9.712;2023-03-21T05:09:57;100795.31;;;7.82;100.00
55068;BME280;40965;52.368;9.712;2023-03-21T05:12:24;100797.06;;;7.84;100.00
55068;BME280;40965;52.368;9.712;2023-03-21T05:14:50;100790.09;;;7.85;100.00
55068;BME280;40965;52.368;9.712;2023-03-21T05:17:17;100793.59;;;7.85;100.00
55068;BME280;40965;52.368;9.712;2023-03-21T05:19:47;100799.66;;;7.86;100.00
55068;BME280;40965;52.368;9.712;2023-03-21T05:22:14;100792.72;;;7.85;100.00
55068;BME280;40965;52.368;9.712;2023-03-21T05:24:46;100791.84;;;7.87;100.00
55068;BME280;40965;52.368;9.712;2023-03-21T05:27:18;100791.00;;;7.88;100.00
55068;BME280;40965;52.368;9.712;2023-03-21T05:30:08;100795.34;;;7.91;100.00
55068;BME280;40965;52.368;9.712;2023-03-21T05:32:40;100788.41;;;7.94;100.00
55068;BME280;40965;52.368;9.712;2023-03-21T05:35:07;100788.41;;;7.98;100.00
55068;BME280;40965;52.368;9.712;2023-03-21T05:37:34;100787.56;;;7.97;100.00
55068;BME280;40965;52.368;9.712;2023-03-21T05:40:00;100791.91;;;8.00;100.00
55068;BME280;40965;52.368;9.712;2023-03-21T05:42:29;100784.09;;;8.04;100.00
55068;BME280;40965;52.368;9.712;2023-03-21T05:44:56;100785.88;;;8.08;100.00
55068;BME280;40965;52.368;9.712;2023-03-21T05:47:22;100791.09;;;8.13;100.00
55068;BME280;40965;52.368;9.712;2023-03-21T05:49:49;100791.94;;;8.12;100.00
55068;BME280;40965;52.368;9.712;2023-03-21T05:52:15;100785.88;;;8.10;100.00
55068;BME280;40965;52.368;9.712;2023-03-21T05:54:42;100786.72;;;8.09;100.00
55068;BME280;40965;52.368;9.712;2023-03-21T05:57:09;100782.38;;;8.08;100.00
55068;BME280;40965;52.368;9.712;2023-03-21T05:59:35;100789.34;;;8.07;100.00
55068;BME280;40965;52.368;9.712;2023-03-21T06:02:02;100790.22;;;8.13;100.00
55068;BME280;40965;52.368;9.712;2023-03-21T06:04:29;100787.63;;;8.14;100.00
55068;BME280;40965;52.368;9.712;2023-03-21T06:06:55;100788.50;;;8.18;100.00
55068;BME280;40965;52.368;9.712;2023-03-21T06:09:22;100786.78;;;8.21;100.00
55068;BME280;40965;52.368;9.712;2023-03-21T06:11:52;100789.38;;;8.24;100.00
55068;BME280;40965;52.368;9.712;2023-03-21T06:14:23;100787.63;;;8.26;100.00
55068;BME280;40965;52.368;9.712;2023-03-21T06:16:49;100791.13;;;8.30;100.00
55068;BME280;40965;52.368;9.712;2023-03-21T06:19:18;100788.56;;;8.33;100.00
55068;BME280;40965;52.368;9.712;2023-03-21T06:21:46;100790.28;;;8.33;100.00
55068;BME280;40965;52.368;9.712;2023-03-21T06:24:13;100792.91;;;8.36;100.00
55068;BME280;40965;52.368;9.712;2023-03-21T06:26:40;100789.41;;;8.37;100.00
55068;BME280;40965;52.368;9.712;2023-03-21T06:29:07;100785.94;;;8.38;100.00
55068;BME280;40965;52.368;9.712;2023-03-21T06:31:34;100784.22;;;8.38;100.00
55068;BME280;40965;52.368;9.712;2023-03-21T06:34:00;100792.91;;;8.40;100.00
55068;BME280;40965;52.368;9.712;2023-03-21T06:36:27;100787.72;;;8.43;100.00
55068;BME280;40965;52.368;9.712;2023-03-21T06:38:53;100792.94;;;8.43;100.00
55068;BME280;40965;52.368;9.712;2023-03-21T06:41:20;100799.03;;;8.47;100.00
55068;BME280;40965;52.368;9.712;2023-03-21T06:43:47;100797.31;;;8.49;100.00
55068;BME280;40965;52.368;9.712;2023-03-21T06:46:13;100793.84;;;8.52;100.00
55068;BME280;40965;52.368;9.712;2023-03-21T06:48:40;100792.97;;;8.53;100.00
55068;BME280;40965;52.368;9.712;2023-03-21T06:51:10;100796.44;;;8.52;100.00
55068;BME280;40965;52.368;9.712;2023-03-21T06:53:37;100796.44;;;8.55;100.00
55068;BME280;40965;52.368;9.712;2023-03-21T06:56:09;100799.94;;;8.57;100.00
55068;BME280;40965;52.368;9.712;2023-03-21T06:58:42;100797.34;;;8.63;100.00
55068;BME280;40965;52.368;9.712;2023-03-21T07:08:32;100796.47;;;8.75;100.00
55068;BME280;40965;52.368;9.712;2023-03-21T07:14:50;100803.41;;;8.84;100.00
55068;BME280;40965;52.368;9.712;2023-03-21T07:17:17;100808.66;;;8.88;100.00
55068;BME280;40965;52.368;9.712;2023-03-21T07:19:43;100801.72;;;8.92;100.00
55068;BME280;40965;52.368;9.712;2023-03-21T07:22:10;100797.34;;;8.96;100.00
55068;BME280;40965;52.368;9.712;2023-03-21T07:24:58;100797.34;;;9.06;100.00
55068;BME280;40965;52.368;9.712;2023-03-21T07:27:25;100798.22;;;9.13;100.00
55068;BME280;40965;52.368;9.712;2023-03-21T07:29:51;100799.06;;;9.21;100.00
55068;BME280;40965;52.368;9.712;2023-03-21T07:32:18;100795.59;;;9.30;100.00
55068;BME280;40965;52.368;9.712;2023-03-21T07:34:44;100795.53;;;9.42;100.00
55068;BME280;40965;52.368;9.712;2023-03-21T07:37:11;100789.44;;;9.51;100.00
55068;BME280;40965;52.368;9.712;2023-03-21T07:39:38;100792.03;;;9.60;100.00
55068;BME280;40965;52.368;9.712;2023-03-21T07:42:10;100796.38;;;9.63;100.00
55068;BME280;40965;52.368;9.712;2023-03-21T07:44:37;100788.53;;;9.62;100.00
55068;BME280;40965;52.368;9.712;2023-03-21T07:47:04;100785.06;;;9.64;100.00
55068;BME280;40965;52.368;9.712;2023-03-21T07:49:31;100786.78;;;9.68;100.00
55068;BME280;40965;52.368;9.712;2023-03-21T07:52:25;100791.97;;;9.82;100.00
55068;BME280;40965;52.368;9.712;2023-03-21T07:54:52;100792.78;;;9.95;100.00
55068;BME280;40965;52.368;9.712;2023-03-21T07:57:21;100786.66;;;10.04;100.00
55068;BME280;40965;52.368;9.712;2023-03-21T07:59:53;100781.34;;;10.16;100.00
55068;BME280;40965;52.368;9.712;2023-03-21T08:02:20;100789.16;;;10.24;99.87
55068;BME280;40965;52.368;9.712;2023-03-21T08:04:47;100785.63;;;10.30;98.83
55068;BME280;40965;52.368;9.712;2023-03-21T08:07:36;100788.28;;;10.26;98.49
55068;BME280;40965;52.368;9.712;2023-03-21T08:10:03;100789.13;;;10.27;98.44
55068;BME280;40965;52.368;9.712;2023-03-21T08:12:30;100790.06;;;10.21;98.44
55068;BME280;40965;52.368;9.712;2023-03-21T08:15:01;100789.22;;;10.12;98.33
55068;BME280;40965;52.368;9.712;2023-03-21T08:17:28;100794.50;;;10.02;98.91
55068;BME280;40965;52.368;9.712;2023-03-21T08:19:54;100788.44;;;9.92;99.30
55068;BME280;40965;52.368;9.712;2023-03-21T08:22:21;100791.88;;;10.01;99.61
55068;BME280;40965;52.368;9.712;2023-03-21T08:24:48;100791.91;;;9.98;99.56
55068;BME280;40965;52.368;9.712;2023-03-21T08:27:14;100796.31;;;9.83;100.00
55068;BME280;40965;52.368;9.712;2023-03-21T08:29:41;100786.72;;;9.90;100.00
55068;BME280;40965;52.368;9.712;2023-03-21T08:32:07;100791.94;;;9.96;100.00
55068;BME280;40965;52.368;9.712;2023-03-21T08:34:39;100799.75;;;9.93;100.00
55068;BME280;40965;52.368;9.712;2023-03-21T08:37:27;100792.78;;;9.92;100.00
55068;BME280;40965;52.368;9.712;2023-03-21T08:40:16;100796.28;;;9.99;100.00
55068;BME280;40965;52.368;9.712;2023-03-21T08:46:32;100786.72;;;9.85;100.00
55068;BME280;40965;52.368;9.712;2023-03-21T08:53:01;100791.94;;;9.96;100.00
55068;BME280;40965;52.368;9.712;2023-03-21T08:55:28;100788.38;;;10.03;99.39
55068;BME280;40965;52.368;9.712;2023-03-21T08:58:02;100790.13;;;10.06;98.83
55068;BME280;40965;52.368;9.712;2023-03-21T09:00:31;100787.50;;;10.06;99.05
55068;BME280;40965;52.368;9.712;2023-03-21T09:02:58;100793.56;;;10.13;99.03
55068;BME280;40965;52.368;9.712;2023-03-21T09:05:25;100790.94;;;10.19;98.59
55068;BME280;40965;52.368;9.712;2023-03-21T09:08:05;100788.31;;;10.20;97.61
55068;BME280;40965;52.368;9.712;2023-03-21T09:14:36;100779.50;;;10.43;97.04
55068;BME280;40965;52.368;9.712;2023-03-21T09:20:47;100779.44;;;10.54;96.29
55068;BME280;40965;52.368;9.712;2023-03-21T09:23:16;100779.34;;;10.65;95.66
55068;BME280;40965;52.368;9.712;2023-03-21T09:25:44;100779.25;;;10.77;94.59
55068;BME280;40965;52.368;9.712;2023-03-21T09:28:11;100781.78;;;10.88;93.31
55068;BME280;40965;52.368;9.712;2023-03-21T09:30:39;100774.84;;;10.84;93.36
55068;BME280;40965;52.368;9.712;2023-03-21T09:33:06;100777.44;;;10.87;93.64
55068;BME280;40965;52.368;9.712;2023-03-21T09:35:37;100782.59;;;10.95;92.46
55068;BME280;40965;52.368;9.712;2023-03-21T09:38:03;100777.31;;;11.02;92.77
55068;BME280;40965;52.368;9.712;2023-03-21T09:49:15;100779.34;;;11.61;88.43
55068;BME280;40965;52.368;9.712;2023-03-21T09:51:49;100777.63;;;11.57;89.04
55068;BME280;40965;52.368;9.712;2023-03-21T09:54:40;100774.25;;;11.49;89.19
55068;BME280;40965;52.368;9.712;2023-03-21T10:03:53;100771.91;;;11.19;90.72
55068;BME280;40965;52.368;9.712;2023-03-21T10:06:23;100781.59;;;11.08;91.00
55068;BME280;40965;52.368;9.712;2023-03-21T10:09:01;100783.50;;;10.95;92.52
55068;BME280;40965;52.368;9.712;2023-03-21T10:11:56;100778.28;;;10.89;93.86
55068;BME280;40965;52.368;9.712;2023-03-21T10:14:34;100789.69;;;10.82;95.08
55068;BME280;40965;52.368;9.712;2023-03-21T10:17:34;100787.97;;;10.78;97.19
55068;BME280;40965;52.368;9.712;2023-03-21T10:23:21;100775.00;;;10.61;99.43
55068;BME280;40965;52.368;9.712;2023-03-21T10:25:54;100764.59;;;10.56;100.00
55068;BME280;40965;52.368;9.712;2023-03-21T10:28:39;100768.91;;;10.60;100.00
55068;BME280;40965;52.368;9.712;2023-03-21T10:31:09;100770.59;;;10.67;100.00
55068;BME280;40965;52.368;9.712;2023-03-21T10:33:46;100767.91;;;10.78;100.00
55068;BME280;40965;52.368;9.712;2023-03-21T10:36:23;100767.91;;;10.78;99.67
55068;BME280;40965;52.368;9.712;2023-03-21T10:39:02;100767.88;;;10.81;99.41
55068;BME280;40965;52.368;9.712;2023-03-21T10:41:32;100760.84;;;10.86;99.57
55068;BME280;40965;52.368;9.712;2023-03-21T10:44:11;100752.13;;;10.86;97.65
55068;BME280;40965;52.368;9.712;2023-03-21T10:46:53;100753.03;;;10.82;97.21
55068;BME280;40965;52.368;9.712;2023-03-21T10:49:38;100751.28;;;10.82;97.65
55068;BME280;40965;52.368;9.712;2023-03-21T10:56:01;100756.53;;;10.82;97.21
55068;BME280;40965;52.368;9.712;2023-03-21T11:02:34;100743.47;;;10.78;99.06
55068;BME280;40965;52.368;9.712;2023-03-21T11:05:26;100752.25;;;10.72;100.00
55068;BME280;40965;52.368;9.712;2023-03-21T11:08:26;100747.94;;;10.65;100.00
55068;BME280;40965;52.368;9.712;2023-03-21T11:10:59;100751.41;;;10.68;100.00
55068;BME280;40965;52.368;9.712;2023-03-21T11:13:36;100746.19;;;10.62;100.00
55068;BME280;40965;52.368;9.712;2023-03-21T11:19:35;100739.25;;;10.59;100.00
55068;BME280;40965;52.368;9.712;2023-03-21T11:22:06;100745.38;;;10.57;100.00
55068;BME280;40965;52.368;9.712;2023-03-21T11:24:34;100738.38;;;10.61;100.00
55068;BME280;40965;52.368;9.712;2023-03-21T11:27:05;100738.34;;;10.62;100.00
55068;BME280;40965;52.368;9.712;2023-03-21T11:29:34;100738.31;;;10.68;100.00
55068;BME280;40965;52.368;9.712;2023-03-21T11:32:52;100737.38;;;10.77;100.00
55068;BME280;40965;52.368;9.712;2023-03-21T11:35:18;100735.56;;;10.84;100.00
55068;BME280;40965;52.368;9.712;2023-03-21T11:38:05;100725.03;;;10.87;100.00
55068;BME280;40965;52.368;9.712;2023-03-21T11:40:36;100732.97;;;10.79;100.00
55068;BME280;40965;52.368;9.712;2023-03-21T11:46:12;100726.91;;;10.77;100.00
55068;BME280;40965;52.368;9.712;2023-03-21T11:49:01;100723.47;;;10.70;100.00
55068;BME280;40965;52.368;9.712;2023-03-21T11:58:39;100715.84;;;10.36;100.00
55068;BME280;40965;52.368;9.712;2023-03-21T12:01:45;100710.63;;;10.32;100.00
55068;BME280;40965;52.368;9.712;2023-03-21T12:04:41;100708.88;;;10.31;100.00
55068;BME280;40965;52.368;9.712;2023-03-21T12:07:54;100704.53;;;10.31;100.00
55068;BME280;40965;52.368;9.712;2023-03-21T12:13:44;100698.31;;;10.51;100.00
55068;BME280;40965;52.368;9.712;2023-03-21T12:16:41;100694.72;;;10.64;100.00
55068;BME280;40965;52.368;9.712;2023-03-21T12:19:18;100689.44;;;10.70;100.00
55068;BME280;40965;52.368;9.712;2023-03-21T13:03:04;100656.09;;;10.88;100.00
55068;BME280;40965;52.368;9.712;2023-03-21T13:05:44;100651.59;;;11.01;100.00
55068;BME280;40965;52.368;9.712;2023-03-21T13:08:48;100647.19;;;11.04;100.00
55068;BME280;40965;52.368;9.712;2023-03-21T13:11:22;100647.19;;;11.04;100.00
55068;BME280;40965;52.368;9.712;2023-03-21T13:13:57;100644.59;;;11.01;100.00
55068;BME280;40965;52.368;9.712;2023-03-21T13:16:53;100641.06;;;11.04;100.00
55068;BME280;40965;52.368;9.712;2023-03-21T13:19:32;100646.28;;;11.05;100.00
55068;BME280;40965;52.368;9.712;2023-03-21T13:30:02;100629.03;;;10.86;100.00
55068;BME280;40965;52.368;9.712;2023-03-21T13:33:19;100631.75;;;10.76;100.00
55068;BME280;40965;52.368;9.712;2023-03-21T13:36:07;100626.63;;;10.66;100.00
55068;BME280;40965;52.368;9.712;2023-03-21T13:38:35;100630.19;;;10.60;100.00
55068;BME280;40965;52.368;9.712;2023-03-21T13:41:07;100618.03;;;10.53;100.00
55068;BME280;40965;52.368;9.712;2023-03-21T13:44:06;100624.19;;;10.47;100.00
55068;BME280;40965;52.368;9.712;2023-03-21T13:47:21;100619.03;;;10.38;100.00
55068;BME280;40965;52.368;9.712;2023-03-21T13:55:39;100618.31;;;10.13;100.00
55068;BME280;40965;52.368;9.712;2023-03-21T14:04:20;100613.22;;;9.94;100.00
55068;BME280;40965;52.368;9.712;2023-03-21T14:07:01;100618.47;;;9.94;100.00
55068;BME280;40965;52.368;9.712;2023-03-21T14:09:36;100607.06;;;10.03;100.00
55068;BME280;40965;52.368;9.712;2023-03-21T14:12:13;100601.78;;;10.10;100.00
55068;BME280;40965;52.368;9.712;2023-03-21T14:14:48;100594.75;;;10.17;100.00
55068;BME280;40965;52.368;9.712;2023-03-21T14:17:27;100589.47;;;10.22;100.00
55068;BME280;40965;52.368;9.712;2023-03-21T14:19:58;100592.94;;;10.24;100.00
55068;BME280;40965;52.368;9.712;2023-03-21T14:22:39;100589.44;;;10.26;100.00
55068;BME280;40965;52.368;9.712;2023-03-21T14:25:10;100599.00;;;10.29;100.00
55068;BME280;40965;52.368;9.712;2023-03-21T14:27:42;100585.94;;;10.29;100.00
55068;BME280;40965;52.368;9.712;2023-03-21T14:30:25;100582.41;;;10.32;100.00
55068;BME280;40965;52.368;9.712;2023-03-21T14:33:16;100583.34;;;10.26;100.00
55068;BME280;40965;52.368;9.712;2023-03-21T14:35:51;100581.56;;;10.28;100.00
55068;BME280;40965;52.368;9.712;2023-03-21T14:38:24;100584.16;;;10.30;100.00
55068;BME280;40965;52.368;9.712;2023-03-21T14:40:54;100578.13;;;10.26;100.00
55068;BME280;40965;52.368;9.712;2023-03-21T14:43:23;100581.56;;;10.28;100.00
55068;BME280;40965;52.368;9.712;2023-03-21T14:45:56;100577.16;;;10.33;100.00
55068;BME280;40965;52.368;9.712;2023-03-21T14:48:40;100571.03;;;10.42;100.00
55068;BME280;40965;52.368;9.712;2023-03-21T14:51:09;100566.56;;;10.50;100.00
55068;BME280;40965;52.368;9.712;2023-03-21T14:53:40;100569.19;;;10.53;100.00
55068;BME280;40965;52.368;9.712;2023-03-21T14:56:20;100564.81;;;10.52;100.00
55068;BME280;40965;52.368;9.712;2023-03-21T14:58:48;100561.34;;;10.50;100.00
55068;BME280;40965;52.368;9.712;2023-03-21T15:01:21;100555.22;;;10.51;100.00
55068;BME280;40965;52.368;9.712;2023-03-21T15:03:53;100551.72;;;10.54;100.00
55068;BME280;40965;52.368;9.712;2023-03-21T15:06:20;100549.97;;;10.53;100.00
55068;BME280;40965;52.368;9.712;2023-03-21T15:09:01;100536.91;;;10.51;100.00
55068;BME280;40965;52.368;9.712;2023-03-21T15:11:37;100536.94;;;10.48;100.00
55068;BME280;40965;52.368;9.712;2023-03-21T15:14:10;100544.78;;;10.48;100.00
55068;BME280;40965;52.368;9.712;2023-03-21T15:16:38;100533.44;;;10.51;100.00
55068;BME280;40965;52.368;9.712;2023-03-21T15:19:05;100537.75;;;10.53;100.00
55068;BME280;40965;52.368;9.712;2023-03-21T15:21:37;100529.94;;;10.49;100.00
55068;BME280;40965;52.368;9.712;2023-03-21T15:24:13;100523.00;;;10.46;100.00
55068;BME280;40965;52.368;9.712;2023-03-21T15:26:45;100530.03;;;10.41;100.00
55068;BME280;40965;52.368;9.712;2023-03-21T15:29:15;100514.34;;;10.35;100.00
55068;BME280;40965;52.368;9.712;2023-03-21T15:31:42;100515.25;;;10.32;100.00
55068;BME280;40965;52.368;9.712;2023-03-21T15:34:23;100510.06;;;10.29;100.00
55068;BME280;40965;52.368;9.712;2023-03-21T15:37:03;100498.72;;;10.27;100.00
55068;BME280;40965;52.368;9.712;2023-03-21T15:39:50;100488.22;;;10.32;100.00
55068;BME280;40965;52.368;9.712;2023-03-21T15:42:24;100500.41;;;10.34;100.00
55068;BME280;40965;52.368;9.712;2023-03-21T15:45:22;100506.47;;;10.41;100.00
55068;BME280;40965;52.368;9.712;2023-03-21T15:47:59;100499.50;;;10.43;100.00